KRYYKTYS

Guest
Details From KRYY - COBB CO MC COLLUM FLD
To KTYS - Mc Ghee Tyson
Flight Number -
Tags generated
Created
Modified
Stats Distance 112 nm / 207 km
Max Altitude 9,900 ft / 3,018 m
Waypoints 3
Social Downloads 0
Likes 0
Share VATSIM

Download

Looking for another format? Having issues loading an existing format? Contact us
Advertisement - Login to hide

Notes

Basic altitude profile: - Ascent Rate: 2500ft/min - Ascent Speed: 250kts - Cruise Altitude: 35000ft - Cruise Speed: 420kts - Descent Rate: 1500ft/min - Descent Speed: 250kts

Route

KRYY NELLO KTYS

ID Type Via Altitude Latitude Longitude Leg Dist Tot Dist Heading (true) Name
O KRYY APT - 0 ft / 0 m 34.01319˚ -84.59700˚ - 0 nm - COBB CO MC COLLUM FLD
NELLO FIX - 9,900 ft / 3,018 m 34.49956˚ -84.41673˚ 30 nm 30 nm 17° / 17° -
O KTYS APT - 0 ft / 0 m 35.81098˚ -83.99403˚ 81 nm 111 nm 15° / 15° Mc Ghee Tyson

Altitude Profile

Advertisement - Login to hide

KRYY

Details ICAO KRYY (RYY)
Name COBB CO MC COLLUM FLD
Region United States
Timezone America/New_York (UTC-5.0)
Stats Elevation 1,040 ft / 317 m (AMSL)
Location 34.013193° -84.597000°
Runways 1
Magnetic Variation 5.030° W

METAR

KRYY 141948Z 30007G14KT 10SM CLR 14/M01 A2992 RMK AO2 SLP854 T01391006

Decode

TAF

TAF AMD KRYY 141945Z 1420/1518 29005KT P6SM SCT250 FM150200 00000KT P6SM SCT250 FM151500 30006KT P6SM BKN250

Decode

Departure Runways

ID Width Length Bearing (true) Bearing (mag) Surface Threshold Offset Overrun Length
09 75 ft / 23 m 6,293 ft / 1,918 m 88.76° 93.79° Asphalt 1,073 ft / 327 m 840 ft / 256 m
27 75 ft / 23 m 6,293 ft / 1,918 m 268.78° 273.81° Asphalt 0 ft / 0 m 0 ft / 0 m

KTYS

Details ICAO KTYS (TYS)
Name Mc Ghee Tyson
Region United States
Timezone America/New_York (UTC-5.0)
Stats Elevation 981 ft / 299 m (AMSL)
Location 35.810979° -83.994033°
Runways 2
Magnetic Variation 5.709° W

METAR

KTYS 141953Z 23012KT 10SM FEW050 BKN140 BKN200 08/M01 A2992 RMK AO2 SLP133 T00831011

Decode

TAF

KTYS 141724Z 1418/1518 30005KT P6SM SCT040 BKN250

Decode

Destination Runways

ID Width Length Bearing (true) Bearing (mag) Surface Threshold Offset Overrun Length
05L 151 ft / 46 m 9,007 ft / 2,745 m 44.69° 50.40° Asphalt 0 ft / 0 m 1,001 ft / 305 m
05R 151 ft / 46 m 9,001 ft / 2,744 m 44.67° 50.38° Asphalt 0 ft / 0 m 180 ft / 55 m
23L 151 ft / 46 m 9,001 ft / 2,744 m 224.69° 230.40° Asphalt 420 ft / 128 m 164 ft / 50 m
23R 151 ft / 46 m 9,007 ft / 2,745 m 224.71° 230.42° Asphalt 0 ft / 0 m 968 ft / 295 m

Approach Navaids

Runway Type Ident Frequency Range Bearing (true) Bearing (mag) Slope Elevation
05L Localiser ITYS 110.30 MHz 18 nm / 33 km 44.70° 50.41° - 975 ft / 297 m (AMSL)
05L Glidescope ITYS 110.30 MHz 10 nm / 19 km 44.70° 50.41° 3.00° 932 ft / 284 m (AMSL)
23R Localiser IBUI 111.70 MHz 18 nm / 33 km 224.68° 230.39° - 981 ft / 299 m (AMSL)
23R Glidescope IBUI 111.70 MHz 10 nm / 19 km 224.70° 230.41° 3.00° 975 ft / 297 m (AMSL)